Terminal Aerodrome Forecast
Issued by NWS Omaha/Valley, NE

Home | Current Version | Previous Version | Graphics & Text | Print | Product List | Glossary On
Versions: 1 2 3 4 5 6 7 8 9 10 11 12 13 14 15 16 17 18 19 20 21 22 23 24 25 26 27 28 29 30 31 32 33 34 35 36 37
000
FTUS43 KOAX 150520
TAFOFK
TAF
KOFK 150520Z 1506/1606 10008KT P6SM BKN040
      TEMPO 1507/1510 02008KT P6SM BKN035
     FM151000 36012G20KT P6SM OVC025
      TEMPO 1510/1514 36006KT 6SM -SHRA BKN015
     FM151400 35012G18KT P6SM SCT020
     FM152100 01007KT P6SM SCT040
     FM152300 VRB03KT P6SM SKC=

USA.gov is the U.S. government's official web portal to all federal, state and local government web resources and services.